createdAt,value
2023-05-10T00:00:01.065Z,100574.78
2023-05-10T00:03:05.992Z,100577.28
2023-05-10T00:06:08.765Z,100578.94
2023-05-10T00:09:12.003Z,100570.13
2023-05-10T00:12:14.624Z,100565.22
2023-05-10T00:15:17.208Z,100564.06
2023-05-10T00:18:19.752Z,100568.00
2023-05-10T00:21:22.952Z,100556.22
2023-05-10T00:24:26.191Z,100567.84
2023-05-10T00:27:28.834Z,100565.44
2023-05-10T00:30:31.685Z,100562.84
2023-05-10T00:33:35.351Z,100569.03
2023-05-10T00:36:39.363Z,100563.97
2023-05-10T00:39:44.896Z,100555.72
2023-05-10T00:42:47.616Z,100564.78
2023-05-10T00:45:50.898Z,100569.97
2023-05-10T00:48:54.034Z,100564.25
2023-05-10T00:51:59.649Z,100565.31
2023-05-10T00:55:04.411Z,100568.63
2023-05-10T00:58:08.213Z,100559.09
2023-05-10T01:01:11.869Z,100559.34
2023-05-10T01:04:15.992Z,100557.56
2023-05-10T01:07:19.372Z,100558.28
2023-05-10T01:10:22.077Z,100558.28
2023-05-10T01:13:35.856Z,100552.97
2023-05-10T01:16:41.671Z,100555.22
2023-05-10T01:19:45.792Z,100556.94
2023-05-10T01:23:26.701Z,100561.13
2023-05-10T01:27:18.322Z,100551.34
2023-05-10T01:30:34.571Z,100548.81
2023-05-10T01:34:06.448Z,100543.78
2023-05-10T01:37:16.775Z,100547.38
2023-05-10T01:40:43.282Z,100545.28
2023-05-10T01:44:12.431Z,100545.41
2023-05-10T01:47:22.619Z,100544.53
2023-05-10T01:50:30.576Z,100539.63
2023-05-10T01:53:38.523Z,100544.19
2023-05-10T01:56:43.380Z,100546.84
2023-05-10T01:59:49.190Z,100538.19
2023-05-10T02:02:57.664Z,100534.31
2023-05-10T02:06:02.871Z,100535.13
2023-05-10T02:09:09.098Z,100527.56
2023-05-10T02:12:14.335Z,100521.53
2023-05-10T02:15:25.931Z,100520.53
2023-05-10T02:18:28.757Z,100504.00
2023-05-10T02:21:33.819Z,100526.94
2023-05-10T02:24:39.453Z,100524.19
2023-05-10T02:27:43.879Z,100522.25
2023-05-10T02:30:48.721Z,100511.66
2023-05-10T02:33:52.266Z,100516.72
2023-05-10T02:36:56.350Z,100519.25
2023-05-10T02:40:00.684Z,100519.09
2023-05-10T02:43:06.754Z,100514.34
2023-05-10T02:46:10.526Z,100524.16
2023-05-10T02:49:13.403Z,100523.41
2023-05-10T02:52:20.462Z,100524.94
2023-05-10T02:55:27.886Z,100510.03
2023-05-10T02:58:30.497Z,100521.06
2023-05-10T03:01:35.175Z,100520.47
2023-05-10T03:04:40.249Z,100524.25
2023-05-10T03:07:43.027Z,100531.50
2023-05-10T03:11:00.429Z,100521.53
2023-05-10T03:14:10.460Z,100519.34
2023-05-10T03:17:25.816Z,100527.09
2023-05-10T03:21:06.257Z,100525.38
2023-05-10T03:24:12.959Z,100529.41
2023-05-10T03:27:17.746Z,100523.50
2023-05-10T03:30:21.099Z,100525.00
2023-05-10T03:33:26.513Z,100520.59
2023-05-10T03:36:29.731Z,100530.81
2023-05-10T03:39:32.461Z,100530.28
2023-05-10T03:42:36.940Z,100523.72
2023-05-10T03:45:39.553Z,100518.41
2023-05-10T03:48:43.683Z,100510.03
2023-05-10T03:51:46.385Z,100522.09
2023-05-10T03:54:49.249Z,100519.56
2023-05-10T03:57:52.000Z,100526.44
2023-05-10T04:00:54.771Z,100528.50
2023-05-10T04:03:57.479Z,100521.53
2023-05-10T04:07:00.261Z,100523.34
2023-05-10T04:10:03.004Z,100523.25
2023-05-10T04:13:05.622Z,100524.38
2023-05-10T04:16:10.423Z,100517.94
2023-05-10T04:19:13.052Z,100518.41
2023-05-10T04:22:15.668Z,100518.63
2023-05-10T04:25:18.193Z,100522.00
2023-05-10T04:28:20.754Z,100528.41
2023-05-10T04:31:25.200Z,100525.31
2023-05-10T04:34:27.834Z,100520.13
2023-05-10T04:37:31.944Z,100519.44
2023-05-10T04:40:35.259Z,100532.06
2023-05-10T04:43:38.607Z,100524.78
2023-05-10T04:46:41.212Z,100521.19
2023-05-10T04:49:44.473Z,100526.00
2023-05-10T04:52:47.053Z,100524.19
2023-05-10T04:55:50.015Z,100531.75
2023-05-10T04:58:52.633Z,100529.91
2023-05-10T05:01:55.261Z,100537.50
2023-05-10T05:04:58.944Z,100533.03
2023-05-10T05:08:01.822Z,100536.09
2023-05-10T05:11:04.737Z,100540.16
2023-05-10T05:14:07.276Z,100530.25
2023-05-10T05:17:09.813Z,100535.03
2023-05-10T05:20:12.843Z,100528.41
2023-05-10T05:23:15.607Z,100526.81
2023-05-10T05:26:18.135Z,100532.69
2023-05-10T05:29:20.783Z,100539.16
2023-05-10T05:32:24.622Z,100546.16
2023-05-10T05:35:27.649Z,100538.59
2023-05-10T05:38:30.293Z,100550.75
2023-05-10T05:41:32.854Z,100546.59
2023-05-10T05:44:36.945Z,100547.56
2023-05-10T05:47:40.929Z,100560.16
2023-05-10T05:50:43.740Z,100554.84
2023-05-10T05:53:46.657Z,100553.81
2023-05-10T05:56:49.204Z,100554.81
2023-05-10T05:59:51.869Z,100565.19
2023-05-10T06:02:54.598Z,100560.97
2023-05-10T06:05:57.365Z,100561.84
2023-05-10T06:09:00.410Z,100560.47
2023-05-10T06:12:03.533Z,100563.00
2023-05-10T06:15:08.668Z,100560.34
2023-05-10T06:18:11.324Z,100565.50
2023-05-10T06:21:13.888Z,100561.56
2023-05-10T06:24:16.607Z,100560.16
2023-05-10T06:27:19.137Z,100570.81
2023-05-10T06:30:28.209Z,100564.63
2023-05-10T06:33:31.148Z,100575.81
2023-05-10T06:36:33.758Z,100581.41
2023-05-10T06:39:37.846Z,100569.22
2023-05-10T06:42:42.689Z,100575.44
2023-05-10T06:45:49.229Z,100562.09
2023-05-10T06:48:52.926Z,100576.16
2023-05-10T06:51:59.379Z,100561.91
2023-05-10T06:55:21.883Z,100559.72
2023-05-10T06:58:24.423Z,100563.47
2023-05-10T07:01:27.034Z,100562.06
2023-05-10T07:04:30.138Z,100548.75
2023-05-10T07:07:33.031Z,100566.88
2023-05-10T07:10:35.659Z,100552.88
2023-05-10T07:13:40.156Z,100561.94
2023-05-10T07:16:43.294Z,100560.16
2023-05-10T07:19:46.914Z,100558.50
2023-05-10T07:22:49.432Z,100558.66
2023-05-10T07:25:55.661Z,100557.06
2023-05-10T07:28:58.163Z,100547.53
2023-05-10T07:32:00.815Z,100547.25
2023-05-10T07:35:04.413Z,100547.28
2023-05-10T07:38:07.044Z,100544.25
2023-05-10T07:41:09.619Z,100536.84
2023-05-10T07:44:12.247Z,100544.56
2023-05-10T07:47:15.660Z,100536.38
2023-05-10T07:50:18.542Z,100544.19
2023-05-10T07:53:22.512Z,100542.91
2023-05-10T07:56:30.711Z,100530.47
2023-05-10T07:59:34.313Z,100539.78
2023-05-10T08:02:37.271Z,100540.97
2023-05-10T08:05:39.891Z,100541.88
2023-05-10T08:08:42.734Z,100549.28
2023-05-10T08:11:45.494Z,100547.56
2023-05-10T08:14:48.042Z,100548.09
2023-05-10T08:17:50.530Z,100549.56
2023-05-10T08:20:53.068Z,100548.59
2023-05-10T08:23:55.890Z,100543.88
2023-05-10T08:26:59.027Z,100541.03
2023-05-10T08:30:02.816Z,100540.88
2023-05-10T08:33:06.810Z,100536.13
2023-05-10T08:36:11.257Z,100534.38
2023-05-10T08:39:26.805Z,100534.09
2023-05-10T08:42:37.291Z,100535.66
2023-05-10T08:45:44.327Z,100534.09
2023-05-10T08:48:48.266Z,100530.41
2023-05-10T08:51:57.666Z,100533.47
2023-05-10T08:55:01.253Z,100531.19
2023-05-10T08:58:04.984Z,100526.59
2023-05-10T09:01:08.609Z,100524.00
2023-05-10T09:04:11.602Z,100528.53
2023-05-10T09:07:14.272Z,100527.78
2023-05-10T09:10:17.270Z,100517.22
2023-05-10T09:13:20.776Z,100526.19
2023-05-10T09:16:24.416Z,100525.78
2023-05-10T09:19:28.791Z,100517.41
2023-05-10T09:22:32.818Z,100529.53
2023-05-10T09:25:39.755Z,100520.00
2023-05-10T09:28:57.011Z,100525.78
2023-05-10T09:31:59.850Z,100516.28
2023-05-10T09:35:08.096Z,100512.22
2023-05-10T09:38:11.479Z,100515.41
2023-05-10T09:41:24.172Z,100504.59
2023-05-10T09:44:29.832Z,100512.66
2023-05-10T09:47:37.097Z,100506.19
2023-05-10T09:50:40.377Z,100515.88
2023-05-10T09:53:42.865Z,100502.72
2023-05-10T09:56:45.468Z,100508.34
2023-05-10T09:59:48.579Z,100515.66
2023-05-10T10:03:01.110Z,100486.44
2023-05-10T10:06:15.977Z,100495.72
2023-05-10T10:09:29.920Z,100495.03
2023-05-10T10:12:32.733Z,100492.81
2023-05-10T10:15:36.584Z,100490.81
2023-05-10T10:18:40.909Z,100479.38
2023-05-10T10:21:43.410Z,100493.00
2023-05-10T10:24:46.690Z,100489.91
2023-05-10T10:27:55.217Z,100474.50
2023-05-10T10:31:03.461Z,100464.75
2023-05-10T10:34:14.093Z,100472.97
2023-05-10T10:37:18.116Z,100461.97
2023-05-10T10:40:34.655Z,100454.31
2023-05-10T10:43:37.755Z,100445.09
2023-05-10T10:47:00.408Z,100457.41
2023-05-10T10:50:06.756Z,100448.09
2023-05-10T10:53:15.111Z,100448.97
2023-05-10T10:56:24.653Z,100441.28
2023-05-10T10:59:30.117Z,100424.09
2023-05-10T11:02:47.004Z,100426.72
2023-05-10T11:05:52.337Z,100435.53
2023-05-10T11:08:55.746Z,100420.56
2023-05-10T11:11:59.396Z,100424.47
2023-05-10T11:15:02.526Z,100430.44
2023-05-10T11:18:30.991Z,100427.03
2023-05-10T11:21:35.451Z,100422.19
2023-05-10T11:24:38.296Z,100411.16
2023-05-10T11:27:41.535Z,100419.53
2023-05-10T11:30:45.481Z,100412.75
2023-05-10T11:33:49.184Z,100417.00
2023-05-10T11:36:54.891Z,100407.31
2023-05-10T11:39:57.551Z,100390.47
2023-05-10T11:43:00.483Z,100399.34
2023-05-10T11:46:03.822Z,100398.88
2023-05-10T11:49:08.596Z,100397.81
2023-05-10T11:52:12.477Z,100413.09
2023-05-10T11:55:15.047Z,100408.03
2023-05-10T11:58:19.827Z,100389.09
2023-05-10T12:01:24.170Z,100382.31
2023-05-10T12:04:27.745Z,100400.59
2023-05-10T12:07:30.573Z,100392.19
2023-05-10T12:10:35.894Z,100397.00
2023-05-10T12:13:42.274Z,100399.69
2023-05-10T12:16:44.847Z,100405.97
2023-05-10T12:19:49.680Z,100408.38
2023-05-10T12:22:59.662Z,100395.59
2023-05-10T12:26:03.826Z,100394.75
2023-05-10T12:29:21.384Z,100389.38
2023-05-10T12:32:41.914Z,100383.06
2023-05-10T12:35:45.744Z,100386.63
2023-05-10T12:38:49.126Z,100386.19
2023-05-10T12:41:52.312Z,100392.81
2023-05-10T12:44:58.553Z,100387.59
2023-05-10T12:48:01.151Z,100382.22
2023-05-10T12:51:05.987Z,100363.41
2023-05-10T12:54:09.614Z,100379.75
2023-05-10T12:57:12.097Z,100365.41
2023-05-10T13:00:16.138Z,100371.78
2023-05-10T13:03:19.909Z,100353.78
2023-05-10T13:06:22.457Z,100350.69
2023-05-10T13:09:30.709Z,100348.47
2023-05-10T13:12:33.385Z,100339.19
2023-05-10T13:15:36.193Z,100334.56
2023-05-10T13:18:38.717Z,100321.72
2023-05-10T13:21:45.282Z,100318.25
2023-05-10T13:24:48.284Z,100331.69
2023-05-10T13:27:53.311Z,100329.00
2023-05-10T13:30:55.955Z,100319.78
2023-05-10T13:33:58.445Z,100328.97
2023-05-10T13:37:00.932Z,100315.81
2023-05-10T13:40:05.493Z,100316.91
2023-05-10T13:43:08.104Z,100302.16
2023-05-10T13:46:11.810Z,100302.78
2023-05-10T13:49:14.386Z,100304.22
2023-05-10T13:52:17.056Z,100305.91
2023-05-10T13:55:19.837Z,100299.28
2023-05-10T13:58:22.812Z,100295.81
2023-05-10T14:01:25.883Z,100294.34
2023-05-10T14:04:28.411Z,100289.22
2023-05-10T14:07:31.782Z,100290.41
2023-05-10T14:10:34.397Z,100295.06
2023-05-10T14:13:38.227Z,100281.59
2023-05-10T14:16:45.438Z,100276.16
2023-05-10T14:19:48.103Z,100284.06
2023-05-10T14:22:50.886Z,100272.84
2023-05-10T14:25:53.908Z,100272.22
2023-05-10T14:28:56.585Z,100281.81
2023-05-10T14:31:59.183Z,100291.72
2023-05-10T14:35:01.690Z,100278.63
2023-05-10T14:38:04.746Z,100278.16
2023-05-10T14:41:07.911Z,100263.34
2023-05-10T14:44:11.578Z,100267.97
2023-05-10T14:47:14.286Z,100271.19
2023-05-10T14:50:32.362Z,100270.31
2023-05-10T14:53:38.134Z,100268.28
2023-05-10T14:56:42.439Z,100280.78
2023-05-10T14:59:44.942Z,100283.25
2023-05-10T15:02:49.154Z,100279.47
2023-05-10T15:05:53.054Z,100285.16
2023-05-10T15:08:55.572Z,100282.59
2023-05-10T15:11:58.043Z,100283.91
2023-05-10T15:15:00.636Z,100278.72
2023-05-10T15:18:05.529Z,100288.19
2023-05-10T15:21:08.042Z,100286.13
2023-05-10T15:24:10.698Z,100272.09
2023-05-10T15:27:13.379Z,100283.53
2023-05-10T15:30:16.108Z,100272.94
2023-05-10T15:33:18.850Z,100268.66
2023-05-10T15:36:21.892Z,100271.00
2023-05-10T15:39:25.008Z,100276.75
2023-05-10T15:42:28.015Z,100271.53
2023-05-10T15:45:30.700Z,100273.41
2023-05-10T15:48:33.385Z,100264.97
2023-05-10T15:51:36.726Z,100268.25
2023-05-10T15:54:39.911Z,100260.41
2023-05-10T15:57:43.888Z,100270.13
2023-05-10T16:00:47.196Z,100271.53
2023-05-10T16:03:50.019Z,100265.13
2023-05-10T16:06:52.831Z,100276.91
2023-05-10T16:09:55.612Z,100276.41
2023-05-10T16:13:01.465Z,100266.50
2023-05-10T16:16:05.248Z,100267.91
2023-05-10T16:19:10.252Z,100272.19
2023-05-10T16:22:13.541Z,100275.69
2023-05-10T16:25:16.726Z,100258.16
2023-05-10T16:28:21.549Z,100265.97
2023-05-10T16:31:24.643Z,100265.47
2023-05-10T16:34:27.662Z,100268.34
2023-05-10T16:37:30.449Z,100284.03
2023-05-10T16:40:35.761Z,100279.03
2023-05-10T16:43:38.395Z,100283.59
2023-05-10T16:46:41.059Z,100279.84
2023-05-10T16:49:43.646Z,100276.25
2023-05-10T16:52:46.486Z,100289.63
2023-05-10T16:55:49.168Z,100290.34
2023-05-10T16:58:54.072Z,100288.75
2023-05-10T17:01:56.739Z,100293.38
2023-05-10T17:04:59.691Z,100296.31
2023-05-10T17:08:02.358Z,100292.50
2023-05-10T17:11:05.286Z,100303.78
2023-05-10T17:14:08.688Z,100304.84
2023-05-10T17:17:11.541Z,100308.25
2023-05-10T17:20:14.128Z,100302.28
2023-05-10T17:23:16.962Z,100307.00
2023-05-10T17:26:19.541Z,100312.78
2023-05-10T17:29:22.242Z,100310.53
2023-05-10T17:32:27.589Z,100309.53
2023-05-10T17:35:31.513Z,100308.91
2023-05-10T17:38:34.165Z,100316.84
2023-05-10T17:41:36.898Z,100316.03
2023-05-10T17:44:39.858Z,100322.06
2023-05-10T17:47:43.163Z,100306.91
2023-05-10T17:50:45.774Z,100315.47
2023-05-10T17:53:48.766Z,100321.50
2023-05-10T17:56:52.853Z,100323.19
2023-05-10T17:59:56.006Z,100325.53
2023-05-10T18:02:59.055Z,100328.19
2023-05-10T18:06:05.563Z,100338.59
2023-05-10T18:09:08.562Z,100333.41
2023-05-10T18:12:13.573Z,100338.78
2023-05-10T18:15:17.370Z,100327.91
2023-05-10T18:18:20.668Z,100352.00
2023-05-10T18:21:23.864Z,100352.34
2023-05-10T18:24:38.306Z,100348.97
2023-05-10T18:27:45.164Z,100352.66
2023-05-10T18:30:48.712Z,100363.38
2023-05-10T18:33:52.421Z,100365.38
2023-05-10T18:36:56.588Z,100362.38
2023-05-10T18:40:00.880Z,100358.00
2023-05-10T18:43:05.544Z,100364.00
2023-05-10T18:46:11.238Z,100362.84
2023-05-10T18:49:19.796Z,100368.00
2023-05-10T18:52:23.500Z,100374.53
2023-05-10T18:55:28.419Z,100377.72
2023-05-10T18:58:32.700Z,100369.53
2023-05-10T19:01:38.252Z,100376.38
2023-05-10T19:04:43.447Z,100379.38
2023-05-10T19:07:47.796Z,100384.09
2023-05-10T19:10:52.825Z,100385.59
2023-05-10T19:14:00.190Z,100386.75
2023-05-10T19:17:07.693Z,100383.91
2023-05-10T19:20:12.565Z,100389.72
2023-05-10T19:23:16.637Z,100389.72
2023-05-10T19:26:22.940Z,100381.88
2023-05-10T19:29:27.621Z,100389.72
2023-05-10T19:32:31.594Z,100389.06
2023-05-10T19:35:39.732Z,100390.78
2023-05-10T19:38:45.652Z,100389.06
2023-05-10T19:41:50.304Z,100383.91
2023-05-10T19:44:53.994Z,100387.41
2023-05-10T19:47:59.528Z,100380.41
2023-05-10T19:51:07.001Z,100387.06
2023-05-10T19:54:12.011Z,100385.06
2023-05-10T19:57:15.632Z,100386.22
2023-05-10T20:00:19.607Z,100381.19
2023-05-10T20:03:23.574Z,100382.03
2023-05-10T20:06:27.545Z,100376.69
2023-05-10T20:09:31.457Z,100380.03
2023-05-10T20:12:34.866Z,100389.03
2023-05-10T20:15:38.648Z,100382.03
2023-05-10T20:18:42.508Z,100393.56
2023-05-10T20:21:45.541Z,100380.66
2023-05-10T20:24:48.706Z,100384.31
2023-05-10T20:27:53.214Z,100383.66
2023-05-10T20:30:57.045Z,100391.88
2023-05-10T20:34:02.348Z,100392.19
2023-05-10T20:37:06.358Z,100383.97
2023-05-10T20:40:10.300Z,100379.28
2023-05-10T20:43:13.977Z,100382.63
2023-05-10T20:46:17.592Z,100390.31
2023-05-10T20:49:21.034Z,100383.63
2023-05-10T20:52:24.674Z,100387.63
2023-05-10T20:55:28.378Z,100373.94
2023-05-10T20:58:31.183Z,100378.63
2023-05-10T21:01:33.898Z,100383.81
2023-05-10T21:04:37.023Z,100381.16
2023-05-10T21:07:39.967Z,100380.13
2023-05-10T21:10:42.711Z,100378.97
2023-05-10T21:13:45.276Z,100378.47
2023-05-10T21:16:47.991Z,100381.31
2023-05-10T21:19:51.864Z,100378.09
2023-05-10T21:22:54.476Z,100380.78
2023-05-10T21:26:00.978Z,100385.28
2023-05-10T21:29:04.947Z,100382.78
2023-05-10T21:32:07.938Z,100379.28
2023-05-10T21:35:10.726Z,100385.94
2023-05-10T21:38:16.183Z,100387.09
2023-05-10T21:41:18.887Z,100386.41
2023-05-10T21:44:21.450Z,100385.94
2023-05-10T21:47:24.018Z,100382.94
2023-05-10T21:50:27.569Z,100390.25
2023-05-10T21:53:30.358Z,100385.22
2023-05-10T21:56:34.534Z,100375.19
2023-05-10T21:59:37.246Z,100380.91
2023-05-10T22:02:40.739Z,100384.75
2023-05-10T22:05:44.049Z,100383.84
2023-05-10T22:08:46.602Z,100388.88
2023-05-10T22:11:49.845Z,100384.91
2023-05-10T22:15:09.466Z,100386.56
2023-05-10T22:18:13.447Z,100401.91
2023-05-10T22:21:16.056Z,100388.72
2023-05-10T22:24:21.230Z,100401.56
2023-05-10T22:27:23.901Z,100402.38
2023-05-10T22:30:26.725Z,100395.47
2023-05-10T22:33:29.631Z,100402.41
2023-05-10T22:36:32.480Z,100405.06
2023-05-10T22:39:38.118Z,100399.97
2023-05-10T22:42:40.779Z,100410.06
2023-05-10T22:45:43.544Z,100394.31
2023-05-10T22:48:46.280Z,100400.88
2023-05-10T22:51:49.045Z,100405.81
2023-05-10T22:54:51.721Z,100407.94
2023-05-10T22:57:54.508Z,100410.56
2023-05-10T23:00:57.119Z,100415.50
2023-05-10T23:03:59.774Z,100420.50
2023-05-10T23:07:03.392Z,100412.63
2023-05-10T23:10:06.584Z,100416.13
2023-05-10T23:13:09.373Z,100409.03
2023-05-10T23:16:12.186Z,100413.00
2023-05-10T23:19:17.104Z,100414.97
2023-05-10T23:22:19.835Z,100419.78
2023-05-10T23:25:22.820Z,100417.78
2023-05-10T23:28:25.351Z,100404.91
2023-05-10T23:31:28.101Z,100417.50
2023-05-10T23:34:31.447Z,100419.03
2023-05-10T23:37:33.997Z,100405.47
2023-05-10T23:40:36.696Z,100417.19
2023-05-10T23:43:39.410Z,100413.31
2023-05-10T23:46:43.761Z,100426.44
2023-05-10T23:49:46.349Z,100430.31
2023-05-10T23:52:48.951Z,100426.03
2023-05-10T23:55:51.625Z,100422.53
2023-05-10T23:58:54.069Z,100432.22
